createdAt,value
2019-03-20T00:01:07.879Z,15.30
2019-03-20T00:03:38.127Z,15.60
2019-03-20T00:06:09.202Z,13.43
2019-03-20T00:08:40.168Z,11.13
2019-03-20T00:11:11.099Z,10.33
2019-03-20T00:13:42.058Z,19.97
2019-03-20T00:16:13.103Z,12.57
2019-03-20T00:18:43.975Z,15.43
2019-03-20T00:21:14.940Z,14.37
2019-03-20T00:23:46.764Z,11.17
2019-03-20T00:26:17.875Z,10.80
2019-03-20T00:28:48.980Z,12.47
2019-03-20T00:31:20.026Z,15.57
2019-03-20T00:33:51.107Z,10.93
2019-03-20T00:36:22.108Z,10.63
2019-03-20T00:38:53.077Z,11.20
2019-03-20T00:41:24.121Z,13.73
2019-03-20T00:43:55.175Z,13.87
2019-03-20T00:46:26.110Z,11.20
2019-03-20T00:48:57.022Z,10.27
2019-03-20T00:51:28.062Z,11.57
2019-03-20T00:53:59.615Z,8.77
2019-03-20T00:56:30.614Z,11.40
2019-03-20T00:59:01.662Z,11.37
2019-03-20T01:01:32.741Z,12.33
2019-03-20T01:04:03.764Z,12.53
2019-03-20T01:06:34.842Z,12.63
2019-03-20T01:09:07.303Z,10.83
2019-03-20T01:11:38.226Z,9.57
2019-03-20T01:14:09.408Z,8.00
2019-03-20T01:16:40.389Z,19.07
2019-03-20T01:19:11.335Z,12.23
2019-03-20T01:21:42.424Z,9.13
2019-03-20T01:24:13.370Z,9.57
2019-03-20T01:26:44.433Z,11.57
2019-03-20T01:29:15.326Z,10.70
2019-03-20T01:31:46.228Z,9.97
2019-03-20T01:34:17.223Z,13.30
2019-03-20T01:36:48.368Z,10.47
2019-03-20T01:39:19.562Z,13.77
2019-03-20T01:41:50.840Z,10.87
2019-03-20T01:44:21.752Z,7.93
2019-03-20T01:46:52.656Z,10.23
2019-03-20T01:49:23.588Z,9.63
2019-03-20T01:51:54.443Z,8.80
2019-03-20T01:54:25.404Z,10.53
2019-03-20T01:56:56.390Z,9.57
2019-03-20T01:59:27.357Z,11.03
2019-03-20T02:01:58.274Z,7.43
2019-03-20T02:04:29.249Z,9.93
2019-03-20T02:07:00.205Z,9.00
2019-03-20T02:09:31.200Z,8.23
2019-03-20T02:12:02.229Z,9.10
2019-03-20T02:14:33.226Z,10.67
2019-03-20T02:17:04.272Z,10.27
2019-03-20T02:19:35.230Z,12.70
2019-03-20T02:22:06.259Z,8.83
2019-03-20T02:24:37.173Z,9.03
2019-03-20T02:27:09.015Z,10.77
2019-03-20T02:29:40.089Z,12.13
2019-03-20T02:32:11.071Z,10.33
2019-03-20T02:34:41.976Z,10.57
2019-03-20T02:37:12.945Z,13.70
2019-03-20T02:39:44.065Z,9.90
2019-03-20T02:42:15.099Z,10.73
2019-03-20T02:44:46.153Z,8.97
2019-03-20T02:47:17.117Z,13.33
2019-03-20T02:49:48.356Z,12.37
2019-03-20T02:52:19.383Z,11.03
2019-03-20T02:54:50.271Z,7.40
2019-03-20T02:57:21.279Z,11.33
2019-03-20T02:59:52.305Z,7.30
2019-03-20T03:02:23.345Z,11.60
2019-03-20T03:04:54.233Z,9.70
2019-03-20T03:07:25.232Z,9.30
2019-03-20T03:09:56.387Z,13.23
2019-03-20T03:12:27.371Z,11.43
2019-03-20T03:14:58.341Z,7.33
2019-03-20T03:17:29.307Z,7.47
2019-03-20T03:20:00.381Z,11.40
2019-03-20T03:22:31.573Z,12.37
2019-03-20T03:25:02.474Z,7.83
2019-03-20T03:27:33.389Z,8.77
2019-03-20T03:30:07.755Z,8.33
2019-03-20T03:32:38.645Z,8.23
2019-03-20T03:35:16.188Z,7.17
2019-03-20T03:37:42.577Z,8.43
2019-03-20T03:40:15.659Z,10.03
2019-03-20T03:42:46.840Z,10.30
2019-03-20T03:45:18.179Z,10.13
2019-03-20T03:47:49.063Z,11.07
2019-03-20T03:50:20.070Z,8.90
2019-03-20T03:52:51.113Z,7.03
2019-03-20T03:55:22.145Z,9.90
2019-03-20T03:57:53.247Z,9.17
2019-03-20T04:00:24.555Z,6.90
2019-03-20T04:02:55.647Z,7.47
2019-03-20T04:05:26.775Z,9.53
2019-03-20T04:07:57.731Z,8.97
2019-03-20T04:10:28.699Z,9.23
2019-03-20T04:12:59.738Z,8.50
2019-03-20T04:15:30.717Z,9.40
2019-03-20T04:18:01.617Z,9.97
2019-03-20T04:20:32.690Z,10.70
2019-03-20T04:23:03.847Z,8.23
2019-03-20T04:25:34.893Z,8.70
2019-03-20T04:28:05.925Z,7.77
2019-03-20T04:30:36.825Z,9.83
2019-03-20T04:33:07.879Z,11.80
2019-03-20T04:35:38.836Z,7.77
2019-03-20T04:38:09.797Z,7.67
2019-03-20T04:40:40.744Z,9.00
2019-03-20T04:43:11.740Z,10.50
2019-03-20T04:45:42.693Z,8.60
2019-03-20T04:48:13.799Z,10.40
2019-03-20T04:50:44.719Z,10.03
2019-03-20T04:53:15.801Z,7.80
2019-03-20T04:55:46.678Z,7.87
2019-03-20T04:58:17.895Z,9.70
2019-03-20T05:00:48.791Z,8.93
2019-03-20T05:03:19.890Z,11.60
2019-03-20T05:05:51.225Z,7.97
2019-03-20T05:08:23.715Z,9.30
2019-03-20T05:10:54.613Z,5.97
2019-03-20T05:13:25.528Z,13.23
2019-03-20T05:15:56.629Z,15.70
2019-03-20T05:18:27.515Z,7.90
2019-03-20T05:20:58.407Z,9.67
2019-03-20T05:23:29.371Z,9.70
2019-03-20T05:26:00.266Z,8.87
2019-03-20T05:28:31.176Z,9.10
2019-03-20T05:31:02.355Z,7.30
2019-03-20T05:33:33.601Z,8.87
2019-03-20T05:36:05.079Z,11.57
2019-03-20T05:38:36.076Z,10.17
2019-03-20T05:41:06.945Z,8.87
2019-03-20T05:43:37.911Z,11.23
2019-03-20T05:46:08.804Z,8.63
2019-03-20T05:48:40.038Z,9.83
2019-03-20T05:51:11.108Z,8.60
2019-03-20T05:53:42.146Z,9.83
2019-03-20T05:56:21.157Z,8.47
2019-03-20T05:58:52.204Z,8.83
2019-03-20T06:01:24.749Z,7.57
2019-03-20T06:03:55.740Z,10.27
2019-03-20T06:06:26.779Z,11.23
2019-03-20T06:08:57.764Z,9.07
2019-03-20T06:11:30.277Z,10.07
2019-03-20T06:14:01.575Z,8.67
2019-03-20T06:16:32.464Z,8.97
2019-03-20T06:19:03.434Z,9.37
2019-03-20T06:21:34.508Z,11.43
2019-03-20T06:24:05.473Z,9.47
2019-03-20T06:26:36.670Z,8.83
2019-03-20T06:29:07.643Z,12.30
2019-03-20T06:31:38.738Z,9.67
2019-03-20T06:34:09.696Z,9.87
2019-03-20T06:36:40.666Z,8.47
2019-03-20T06:39:11.994Z,11.30
2019-03-20T06:41:43.000Z,8.93
2019-03-20T06:44:13.885Z,7.30
2019-03-20T06:46:44.882Z,12.70
2019-03-20T06:49:15.889Z,9.07
2019-03-20T06:51:46.862Z,9.67
2019-03-20T06:54:17.752Z,11.13
2019-03-20T06:56:48.848Z,11.87
2019-03-20T06:59:28.596Z,8.53
2019-03-20T07:02:01.517Z,13.73
2019-03-20T07:04:47.516Z,13.90
2019-03-20T07:07:24.137Z,10.67
2019-03-20T07:10:00.918Z,14.00
2019-03-20T07:12:31.952Z,9.80
2019-03-20T07:15:03.092Z,9.17
2019-03-20T07:17:34.066Z,12.73
2019-03-20T07:20:08.318Z,18.87
2019-03-20T07:22:39.468Z,16.30
2019-03-20T07:25:10.417Z,11.57
2019-03-20T07:27:41.528Z,11.27
2019-03-20T07:30:13.036Z,10.13
2019-03-20T07:32:43.972Z,9.87
2019-03-20T07:35:14.965Z,8.87
2019-03-20T07:37:55.638Z,12.10
2019-03-20T07:40:18.641Z,10.87
2019-03-20T07:42:49.612Z,14.37
2019-03-20T07:45:20.677Z,11.90
2019-03-20T07:47:51.892Z,8.70
2019-03-20T07:50:22.880Z,12.67
2019-03-20T07:52:53.850Z,11.13
2019-03-20T07:55:24.814Z,8.50
2019-03-20T07:57:55.748Z,10.87
2019-03-20T08:00:26.760Z,12.13
2019-03-20T08:02:57.709Z,11.33
2019-03-20T08:05:29.707Z,25.20
2019-03-20T08:08:07.379Z,14.53
2019-03-20T08:10:33.429Z,14.27
2019-03-20T08:13:04.494Z,68.10
2019-03-20T08:15:36.057Z,15.87
2019-03-20T08:18:07.010Z,20.57
2019-03-20T08:20:37.987Z,22.23
2019-03-20T08:23:08.860Z,15.30
2019-03-20T08:25:39.844Z,16.60
2019-03-20T08:28:10.723Z,8.37
2019-03-20T08:30:41.665Z,14.47
2019-03-20T08:33:12.632Z,13.37
2019-03-20T08:35:43.620Z,12.73
2019-03-20T08:38:18.536Z,12.30
2019-03-20T08:40:47.191Z,14.97
2019-03-20T08:43:18.184Z,10.93
2019-03-20T08:45:49.237Z,8.77
2019-03-20T08:48:20.313Z,13.03
2019-03-20T08:50:51.276Z,13.03
2019-03-20T08:53:22.311Z,14.00
2019-03-20T08:55:53.224Z,12.93
2019-03-20T08:58:24.163Z,14.90
2019-03-20T09:00:55.104Z,12.07
2019-03-20T09:03:26.032Z,16.07
2019-03-20T09:05:57.017Z,16.80
2019-03-20T09:08:29.664Z,14.07
2019-03-20T09:11:00.642Z,12.43
2019-03-20T09:13:33.235Z,16.10
2019-03-20T09:16:04.435Z,10.70
2019-03-20T09:18:35.407Z,8.93
2019-03-20T09:21:06.434Z,5.07
2019-03-20T09:23:37.668Z,6.43
2019-03-20T09:26:08.663Z,10.10
2019-03-20T09:28:39.613Z,6.57
2019-03-20T09:31:10.791Z,8.07
2019-03-20T09:33:41.788Z,9.13
2019-03-20T09:36:13.304Z,6.53
2019-03-20T09:38:44.240Z,6.50
2019-03-20T09:41:15.124Z,8.90
2019-03-20T09:43:46.063Z,7.00
2019-03-20T09:46:16.959Z,7.27
2019-03-20T09:48:47.917Z,6.47
2019-03-20T09:51:19.124Z,9.10
2019-03-20T09:53:50.122Z,7.17
2019-03-20T09:56:21.082Z,9.07
2019-03-20T09:58:52.282Z,6.83
2019-03-20T10:01:23.278Z,5.20
2019-03-20T10:03:54.155Z,3.53
2019-03-20T10:06:25.100Z,5.17
2019-03-20T10:08:56.154Z,5.43
2019-03-20T10:11:27.039Z,6.67
2019-03-20T10:13:57.922Z,3.93
2019-03-20T10:16:28.914Z,4.80
2019-03-20T10:18:59.904Z,5.00
2019-03-20T10:21:31.156Z,8.43
2019-03-20T10:24:02.136Z,3.40
2019-03-20T10:26:33.122Z,5.27
2019-03-20T10:29:04.323Z,5.57
2019-03-20T10:31:35.477Z,8.00
2019-03-20T10:34:06.422Z,4.50
2019-03-20T10:36:37.446Z,4.90
2019-03-20T10:39:08.752Z,7.17
2019-03-20T10:41:39.846Z,5.07
2019-03-20T10:44:10.798Z,4.63
2019-03-20T10:46:41.697Z,6.30
2019-03-20T10:49:12.654Z,4.40
2019-03-20T10:51:44.002Z,7.17
2019-03-20T10:54:16.610Z,5.53
2019-03-20T10:56:47.556Z,6.93
2019-03-20T10:59:18.667Z,3.77
2019-03-20T11:01:50.027Z,6.30
2019-03-20T11:04:20.882Z,5.30
2019-03-20T11:06:51.779Z,6.63
2019-03-20T11:09:22.778Z,5.53
2019-03-20T11:11:53.959Z,5.57
2019-03-20T11:14:24.896Z,6.30
2019-03-20T11:16:55.856Z,6.27
2019-03-20T11:19:26.775Z,6.10
2019-03-20T11:21:57.626Z,5.80
2019-03-20T11:24:28.866Z,3.93
2019-03-20T11:26:59.749Z,4.90
2019-03-20T11:29:30.739Z,5.40
2019-03-20T11:32:01.771Z,6.13
2019-03-20T11:34:32.678Z,5.83
2019-03-20T11:37:05.748Z,4.00
2019-03-20T11:39:36.701Z,5.13
2019-03-20T11:42:07.734Z,6.50
2019-03-20T11:44:38.847Z,6.53
2019-03-20T11:47:09.790Z,6.23
2019-03-20T11:49:40.895Z,5.17
2019-03-20T11:52:11.786Z,6.37
2019-03-20T11:54:42.871Z,4.97
2019-03-20T11:57:13.871Z,6.33
2019-03-20T11:59:44.987Z,7.47
2019-03-20T12:02:27.491Z,6.27
2019-03-20T12:04:48.505Z,4.80
2019-03-20T12:07:19.554Z,5.20
2019-03-20T12:09:50.506Z,6.13
2019-03-20T12:12:21.398Z,4.80
2019-03-20T12:14:52.407Z,7.33
2019-03-20T12:17:23.367Z,4.73
2019-03-20T12:19:54.382Z,4.40
2019-03-20T12:22:25.559Z,5.50
2019-03-20T12:24:56.699Z,5.00
2019-03-20T12:27:27.720Z,5.13
2019-03-20T12:29:58.631Z,6.90
2019-03-20T12:32:50.543Z,6.30
2019-03-20T12:35:22.310Z,7.77
2019-03-20T12:37:53.304Z,5.47
2019-03-20T12:40:25.910Z,4.17
2019-03-20T12:42:57.968Z,4.33
2019-03-20T12:45:31.843Z,6.43
2019-03-20T12:48:03.076Z,6.67
2019-03-20T12:50:34.076Z,4.30
2019-03-20T12:53:10.927Z,5.43
2019-03-20T12:55:41.912Z,5.60
2019-03-20T12:58:33.844Z,8.00
2019-03-20T13:01:05.552Z,7.97
2019-03-20T13:03:36.528Z,5.80
2019-03-20T13:06:07.466Z,5.83
2019-03-20T13:08:38.511Z,5.43
2019-03-20T13:11:09.469Z,5.07
2019-03-20T13:13:40.790Z,8.20
2019-03-20T13:16:11.813Z,6.50
2019-03-20T13:18:43.199Z,6.83
2019-03-20T13:21:14.143Z,6.50
2019-03-20T13:23:45.324Z,5.83
2019-03-20T13:26:16.322Z,6.07
2019-03-20T13:28:47.416Z,9.83
2019-03-20T13:31:21.523Z,9.00
2019-03-20T13:33:52.500Z,6.17
2019-03-20T13:36:23.442Z,7.10
2019-03-20T13:38:56.456Z,6.13
2019-03-20T13:41:27.282Z,5.27
2019-03-20T13:43:58.253Z,5.73
2019-03-20T13:46:29.181Z,8.67
2019-03-20T13:49:00.103Z,5.47
2019-03-20T13:51:31.049Z,5.90
2019-03-20T13:54:02.019Z,8.67
2019-03-20T13:56:33.253Z,5.07
2019-03-20T13:59:04.258Z,5.13
2019-03-20T14:01:35.810Z,6.27
2019-03-20T14:04:06.853Z,6.60
2019-03-20T14:06:37.791Z,5.13
2019-03-20T14:09:08.878Z,4.67
2019-03-20T14:11:39.783Z,5.03
2019-03-20T14:14:10.811Z,8.53
2019-03-20T14:16:41.795Z,6.37
2019-03-20T14:19:12.814Z,8.60
2019-03-20T14:21:44.114Z,5.30
2019-03-20T14:24:15.198Z,5.20
2019-03-20T14:26:46.264Z,4.53
2019-03-20T14:29:17.339Z,8.13
2019-03-20T14:31:48.521Z,5.40
2019-03-20T14:34:19.428Z,5.60
2019-03-20T14:36:50.391Z,5.93
2019-03-20T14:39:21.626Z,6.27
2019-03-20T14:41:52.606Z,5.50
2019-03-20T14:44:23.594Z,6.03
2019-03-20T14:46:54.760Z,7.77
2019-03-20T14:49:25.732Z,6.73
2019-03-20T14:51:57.284Z,7.83
2019-03-20T14:54:28.271Z,7.60
2019-03-20T14:56:59.332Z,6.10
2019-03-20T14:59:30.286Z,6.13
2019-03-20T15:02:01.214Z,4.17
2019-03-20T15:04:32.166Z,7.30
2019-03-20T15:07:03.402Z,6.17
2019-03-20T15:09:34.307Z,4.97
2019-03-20T15:12:05.498Z,6.63
2019-03-20T15:14:36.428Z,5.27
2019-03-20T15:17:07.373Z,5.47
2019-03-20T15:19:38.292Z,4.77
2019-03-20T15:22:09.334Z,8.80
2019-03-20T15:24:40.513Z,7.47
2019-03-20T15:27:11.472Z,5.10
2019-03-20T15:29:42.353Z,7.70
2019-03-20T15:32:13.371Z,7.67
2019-03-20T15:34:44.389Z,6.53
2019-03-20T15:37:15.384Z,5.67
2019-03-20T15:39:56.858Z,8.10
2019-03-20T15:42:27.772Z,6.70
2019-03-20T15:44:58.840Z,9.00
2019-03-20T15:47:29.757Z,7.40
2019-03-20T15:50:00.738Z,5.30
2019-03-20T15:52:31.844Z,9.90
2019-03-20T15:55:03.308Z,7.73
2019-03-20T15:57:34.406Z,11.43
2019-03-20T16:00:08.357Z,6.90
2019-03-20T16:02:39.259Z,7.20
2019-03-20T16:05:10.322Z,6.93
2019-03-20T16:07:41.395Z,6.17
2019-03-20T16:10:23.430Z,6.53
2019-03-20T16:12:54.389Z,7.47
2019-03-20T16:15:25.670Z,6.90
2019-03-20T16:17:56.755Z,7.67
2019-03-20T16:20:27.779Z,8.03
2019-03-20T16:22:58.888Z,8.50
2019-03-20T16:25:30.119Z,5.80
2019-03-20T16:28:07.795Z,5.57
2019-03-20T16:30:38.730Z,7.73
2019-03-20T16:33:09.729Z,7.47
2019-03-20T16:35:40.709Z,10.63
2019-03-20T16:38:11.689Z,6.83
2019-03-20T16:40:42.736Z,7.03
2019-03-20T16:43:13.740Z,10.27
2019-03-20T16:45:47.029Z,9.47
2019-03-20T16:48:18.153Z,5.27
2019-03-20T16:50:49.377Z,8.40
2019-03-20T16:53:20.433Z,10.30
2019-03-20T16:55:51.496Z,7.80
2019-03-20T16:58:22.600Z,8.40
2019-03-20T17:00:53.600Z,7.43
2019-03-20T17:03:24.667Z,9.07
2019-03-20T17:05:55.822Z,5.83
2019-03-20T17:08:26.780Z,5.27
2019-03-20T17:10:57.962Z,11.17
2019-03-20T17:13:29.492Z,6.90
2019-03-20T17:16:01.281Z,8.67
2019-03-20T17:18:32.365Z,7.67
2019-03-20T17:21:04.153Z,5.93
2019-03-20T17:23:35.451Z,7.90
2019-03-20T17:26:06.524Z,4.13
2019-03-20T17:28:37.501Z,6.67
2019-03-20T17:31:08.384Z,8.07
2019-03-20T17:33:39.270Z,7.97
2019-03-20T17:36:10.155Z,4.83
2019-03-20T17:38:41.113Z,6.20
2019-03-20T17:41:12.025Z,5.93
2019-03-20T17:43:43.079Z,9.00
2019-03-20T17:46:14.102Z,7.57
2019-03-20T17:48:45.065Z,9.23
2019-03-20T17:51:17.400Z,6.70
2019-03-20T17:53:48.583Z,7.30
2019-03-20T17:56:19.518Z,6.90
2019-03-20T17:58:52.013Z,8.00
2019-03-20T18:01:23.325Z,9.67
2019-03-20T18:03:54.669Z,7.53
2019-03-20T18:06:25.714Z,11.80
2019-03-20T18:08:58.032Z,8.90
2019-03-20T18:11:29.734Z,8.00
2019-03-20T18:14:00.911Z,8.80
2019-03-20T18:16:56.469Z,10.63
2019-03-20T18:19:30.707Z,11.97
2019-03-20T18:22:01.777Z,9.97
2019-03-20T18:24:35.013Z,7.27
2019-03-20T18:27:06.703Z,10.10
2019-03-20T18:29:37.681Z,8.33
2019-03-20T18:32:08.720Z,7.33
2019-03-20T18:34:40.527Z,12.17
2019-03-20T18:37:14.637Z,8.10
2019-03-20T18:40:05.731Z,12.67
2019-03-20T18:42:42.355Z,8.67
2019-03-20T18:45:16.226Z,11.63
2019-03-20T18:47:47.315Z,9.53
2019-03-20T18:50:19.737Z,5.97
2019-03-20T18:52:51.258Z,10.80
2019-03-20T18:55:22.708Z,11.43
2019-03-20T18:57:53.876Z,6.63
2019-03-20T19:00:27.180Z,9.27
2019-03-20T19:03:18.831Z,7.17
2019-03-20T19:05:55.543Z,7.20
2019-03-20T19:08:28.687Z,11.23
2019-03-20T19:11:00.237Z,9.03
2019-03-20T19:13:33.829Z,10.40
2019-03-20T19:16:06.305Z,11.07
2019-03-20T19:18:37.376Z,10.20
2019-03-20T19:21:08.685Z,11.40
2019-03-20T19:23:40.185Z,9.70
2019-03-20T19:29:10.968Z,8.90
2019-03-20T19:31:42.420Z,11.83
2019-03-20T19:34:13.582Z,11.53
2019-03-20T19:36:46.204Z,15.00
2019-03-20T19:39:17.784Z,16.73
2019-03-20T19:41:53.964Z,16.77
2019-03-20T19:44:25.263Z,20.73
2019-03-20T19:46:58.554Z,15.03
2019-03-20T19:49:32.821Z,14.17
2019-03-20T19:52:04.028Z,13.97
2019-03-20T19:54:35.024Z,15.67
2019-03-20T19:57:06.072Z,15.57
2019-03-20T19:59:37.215Z,29.43
2019-03-20T20:02:08.457Z,20.03
2019-03-20T20:04:39.473Z,17.80
2019-03-20T20:07:13.185Z,22.37
2019-03-20T20:09:45.530Z,16.27
2019-03-20T20:12:19.023Z,17.30
2019-03-20T20:14:49.681Z,16.57
2019-03-20T20:17:20.722Z,17.10
2019-03-20T20:19:53.555Z,19.43
2019-03-20T20:22:24.497Z,15.43
2019-03-20T20:24:55.801Z,23.23
2019-03-20T20:27:26.732Z,20.17
2019-03-20T20:29:59.699Z,26.33
2019-03-20T20:32:31.072Z,20.23
2019-03-20T20:35:02.061Z,18.43
2019-03-20T20:37:32.995Z,21.37
2019-03-20T20:40:14.196Z,26.70
2019-03-20T20:42:47.383Z,24.57
2019-03-20T20:45:18.283Z,20.30
2019-03-20T20:47:50.921Z,29.90
2019-03-20T20:50:25.044Z,23.37
2019-03-20T20:52:56.258Z,25.57
2019-03-20T20:55:30.608Z,21.63
2019-03-20T20:58:01.687Z,19.50
2019-03-20T21:00:32.691Z,21.27
2019-03-20T21:03:03.804Z,16.23
2019-03-20T21:05:34.878Z,16.30
2019-03-20T21:08:05.814Z,21.47
2019-03-20T21:10:36.718Z,16.47
2019-03-20T21:13:07.858Z,19.37
2019-03-20T21:15:40.751Z,15.53
2019-03-20T21:18:17.617Z,14.93
2019-03-20T21:20:49.114Z,16.13
2019-03-20T21:23:40.378Z,20.70
2019-03-20T21:26:14.960Z,14.07
2019-03-20T21:29:11.697Z,16.37
2019-03-20T21:31:57.704Z,18.97
2019-03-20T21:34:51.014Z,17.93
2019-03-20T21:37:34.004Z,14.20
2019-03-20T21:40:08.128Z,12.30
2019-03-20T21:43:06.764Z,13.57
2019-03-20T21:45:58.245Z,17.57
2019-03-20T21:48:29.363Z,18.80
2019-03-20T21:51:03.319Z,16.53
2019-03-20T21:53:52.223Z,12.20
2019-03-20T21:56:31.950Z,12.97
2019-03-20T21:59:17.575Z,16.90
2019-03-20T22:02:07.003Z,18.60
2019-03-20T22:04:37.966Z,14.53
2019-03-20T22:07:12.643Z,13.57
2019-03-20T22:09:55.590Z,13.67
2019-03-20T22:12:41.381Z,16.37
2019-03-20T22:15:30.493Z,13.70
2019-03-20T22:18:19.737Z,13.50
2019-03-20T22:20:53.701Z,14.60
2019-03-20T22:23:53.315Z,14.03
2019-03-20T22:27:00.725Z,17.47
2019-03-20T22:29:31.616Z,14.70
2019-03-20T22:32:20.444Z,15.40
2019-03-20T22:34:59.939Z,14.63
2019-03-20T22:37:30.851Z,16.70
2019-03-20T22:40:16.987Z,18.60
2019-03-20T22:43:08.673Z,13.70
2019-03-20T22:46:00.237Z,16.60
2019-03-20T22:49:11.411Z,13.63
2019-03-20T22:51:57.632Z,18.30
2019-03-20T22:54:54.251Z,16.97
2019-03-20T22:57:40.044Z,15.70
2019-03-20T23:00:11.463Z,15.57
2019-03-20T23:02:57.798Z,16.80
2019-03-20T23:05:28.893Z,15.67
2019-03-20T23:08:00.086Z,14.30
2019-03-20T23:10:31.181Z,18.27
2019-03-20T23:13:02.081Z,19.87
2019-03-20T23:15:33.025Z,17.17
2019-03-20T23:18:04.163Z,17.57
2019-03-20T23:20:35.148Z,16.83
2019-03-20T23:23:06.053Z,14.87
2019-03-20T23:25:36.964Z,15.83
2019-03-20T23:28:07.951Z,15.70
2019-03-20T23:30:38.984Z,19.10
2019-03-20T23:33:09.872Z,16.57
2019-03-20T23:35:40.974Z,16.53
2019-03-20T23:38:11.854Z,14.20
2019-03-20T23:40:43.064Z,14.83
2019-03-20T23:43:14.376Z,14.77
2019-03-20T23:45:45.337Z,13.60
2019-03-20T23:48:53.110Z,13.90
2019-03-20T23:51:26.779Z,12.33
2019-03-20T23:53:58.526Z,17.73
2019-03-20T23:56:32.648Z,15.43
2019-03-20T23:59:04.276Z,13.30
